Time;durP1;ratioP1;P1;durP2;ratioP2;P2;SDS_P1;SDS_P2;PMS_P1;PMS_P2;Temp;Humidity;BMP_temperature;BMP_pressure;BME280_temperature;BME280_humidity;BME280_pressure;Samples;Min_cycle;Max_cycle;Signal;HPM_P1;HPM_P2
2021/01/05 00:01:36;;;;;;;;;;;-1.80;99.90;;;;;;4751993;30;20283;-69
2021/01/05 00:04:02;;;;;;;;;;;-1.80;99.90;;;;;;4751805;30;20379;-69
2021/01/05 00:06:28;;;;;;;;;;;-1.70;99.90;;;;;;4752397;30;19919;-69
2021/01/05 00:08:53;;;;;;;;;;;-1.60;99.90;;;;;;4751640;30;19923;-69
2021/01/05 00:11:19;;;;;;;;;;;-1.60;99.90;;;;;;4751764;30;20379;-69
2021/01/05 00:13:44;;;;;;;;;;;-1.50;99.90;;;;;;4751711;30;19926;-69
2021/01/05 00:16:10;;;;;;;;;;;-1.50;99.90;;;;;;4751606;30;19930;-69
2021/01/05 00:18:36;;;;;;;;;;;-1.40;99.90;;;;;;4751324;30;19926;-69
2021/01/05 00:21:01;;;;;;;;;;;-1.30;99.90;;;;;;4751513;30;20325;-69
2021/01/05 00:23:27;;;;;;;;;;;-1.20;99.90;;;;;;4752265;30;19948;-69
2021/01/05 00:25:53;;;;;;;;;;;-1.00;99.90;;;;;;4751816;30;19922;-69
2021/01/05 00:28:18;;;;;;;;;;;-1.00;99.90;;;;;;4751239;30;19972;-69
2021/01/05 00:30:44;;;;;;;;;;;-0.90;99.90;;;;;;4751754;30;19929;-69
2021/01/05 00:33:10;;;;;;;;;;;-0.80;99.90;;;;;;4751477;30;19928;-69
2021/01/05 00:35:36;;;;;;;;;;;-0.80;99.90;;;;;;4751329;30;20448;-69
2021/01/05 00:38:06;;;;;;;;;;;-1.00;99.90;;;;;;4751072;30;19926;-69
2021/01/05 00:40:32;;;;;;;;;;;-1.00;99.90;;;;;;4751501;30;20450;-69
2021/01/05 00:42:58;;;;;;;;;;;-1.00;99.90;;;;;;4751945;30;19930;-69
2021/01/05 00:45:27;;;;;;;;;;;-0.90;99.90;;;;;;4751328;30;19929;-69
2021/01/05 00:47:52;;;;;;;;;;;-1.00;99.90;;;;;;4750772;30;19930;-69
2021/01/05 00:50:18;;;;;;;;;;;-1.00;99.90;;;;;;4751433;30;19918;-69
2021/01/05 00:52:44;;;;;;;;;;;-1.00;99.90;;;;;;4751289;30;19926;-69
2021/01/05 00:55:11;;;;;;;;;;;-1.10;99.90;;;;;;4752805;30;19949;-69
2021/01/05 00:57:37;;;;;;;;;;;-1.00;99.90;;;;;;4754734;30;19923;-69
2021/01/05 01:00:07;;;;;;;;;;;-1.10;99.90;;;;;;4755023;30;20291;-69
2021/01/05 01:02:33;;;;;;;;;;;-1.00;99.90;;;;;;4754795;30;19922;-69
2021/01/05 01:04:58;;;;;;;;;;;-1.10;99.90;;;;;;4755307;30;20290;-69
2021/01/05 01:07:24;;;;;;;;;;;-1.00;99.90;;;;;;4754408;30;19922;-69
2021/01/05 01:09:50;;;;;;;;;;;-1.10;99.90;;;;;;4754877;30;19929;-69
2021/01/05 01:12:19;;;;;;;;;;;-1.10;99.90;;;;;;4754602;30;19932;-69
2021/01/05 01:14:46;;;;;;;;;;;-1.10;99.90;;;;;;4754354;30;19922;-69
2021/01/05 01:17:13;;;;;;;;;;;-1.10;99.90;;;;;;4754228;30;19922;-69
2021/01/05 01:19:38;;;;;;;;;;;-1.10;99.90;;;;;;4754590;30;19925;-69
2021/01/05 01:22:04;;;;;;;;;;;-1.10;99.90;;;;;;4754503;30;19922;-69
2021/01/05 01:24:30;;;;;;;;;;;-1.10;99.90;;;;;;4755000;30;19975;-69
2021/01/05 01:26:56;;;;;;;;;;;-1.00;99.90;;;;;;4753757;30;19922;-69
2021/01/05 01:29:22;;;;;;;;;;;-1.00;99.90;;;;;;4754510;30;20299;-69
2021/01/05 01:31:48;;;;;;;;;;;-1.00;99.90;;;;;;4754419;30;20509;-69
2021/01/05 01:34:15;;;;;;;;;;;-1.00;99.90;;;;;;4753815;30;19922;-69
2021/01/05 01:36:41;;;;;;;;;;;-1.00;99.90;;;;;;4754359;30;19987;-69
2021/01/05 01:39:08;;;;;;;;;;;-1.00;99.90;;;;;;4754178;30;20005;-69
2021/01/05 01:41:33;;;;;;;;;;;-0.90;99.90;;;;;;4754740;30;19975;-69
2021/01/05 01:43:59;;;;;;;;;;;-0.90;99.90;;;;;;4753816;30;19930;-69
2021/01/05 01:46:29;;;;;;;;;;;-0.90;99.90;;;;;;4754081;30;19965;-69
2021/01/05 01:48:54;;;;;;;;;;;-0.90;99.90;;;;;;4754307;30;19918;-69
2021/01/05 01:51:20;;;;;;;;;;;-0.90;99.90;;;;;;4753860;30;19928;-69
2021/01/05 01:54:04;;;;;;;;;;;-0.80;99.90;;;;;;4753718;30;19933;-69
2021/01/05 01:56:53;;;;;;;;;;;-0.80;99.90;;;;;;4754213;30;19965;-69
2021/01/05 01:59:24;;;;;;;;;;;-0.80;99.90;;;;;;4753887;30;19953;-69
2021/01/05 02:02:00;;;;;;;;;;;-0.90;99.90;;;;;;4753796;30;19922;-69
2021/01/05 02:04:28;;;;;;;;;;;-0.80;99.90;;;;;;4753454;30;20277;-69
2021/01/05 02:06:54;;;;;;;;;;;-0.80;99.90;;;;;;4753173;30;20264;-69
2021/01/05 02:09:38;;;;;;;;;;;-0.80;99.90;;;;;;4753851;30;19987;-69
2021/01/05 02:12:13;;;;;;;;;;;-0.80;99.90;;;;;;4754304;30;19930;-69
2021/01/05 02:14:52;;;;;;;;;;;-0.80;99.90;;;;;;4753306;30;19939;-69
2021/01/05 02:17:30;;;;;;;;;;;-0.90;99.90;;;;;;4753644;30;19922;-69
2021/01/05 02:19:59;;;;;;;;;;;-0.80;99.90;;;;;;4753482;30;19922;-69
2021/01/05 02:22:35;;;;;;;;;;;-0.80;99.90;;;;;;4753531;30;19922;-69
2021/01/05 02:25:10;;;;;;;;;;;-0.90;99.90;;;;;;4753176;30;19922;-69
2021/01/05 02:27:49;;;;;;;;;;;-0.80;99.90;;;;;;4754008;30;19929;-69
2021/01/05 02:30:17;;;;;;;;;;;-0.80;99.90;;;;;;4753487;30;19928;-69
2021/01/05 02:32:49;;;;;;;;;;;-0.70;99.90;;;;;;4753387;30;19937;-69
2021/01/05 02:35:18;;;;;;;;;;;-0.70;99.90;;;;;;4735560;30;19930;-69
2021/01/05 02:37:46;;;;;;;;;;;-0.60;99.90;;;;;;4735642;30;19930;-69
2021/01/05 02:40:12;;;;;;;;;;;-0.70;99.90;;;;;;4735603;30;19930;-69
2021/01/05 02:42:40;;;;;;;;;;;-0.60;99.90;;;;;;4735945;30;19998;-69
2021/01/05 02:45:06;;;;;;;;;;;-0.70;99.90;;;;;;4752314;30;19918;-69
2021/01/05 02:47:57;;;;;;;;;;;-0.70;99.90;;;;;;4753144;30;19980;-69
2021/01/05 02:50:35;;;;;;;;;;;-0.60;99.90;;;;;;4752942;30;19922;-69
2021/01/05 02:53:28;;;;;;;;;;;-0.60;99.90;;;;;;4752617;30;19929;-69
2021/01/05 02:55:56;;;;;;;;;;;-0.50;99.90;;;;;;4752925;30;20021;-69
2021/01/05 02:58:40;;;;;;;;;;;-0.50;99.90;;;;;;4752994;30;19926;-69
2021/01/05 03:01:24;;;;;;;;;;;-0.50;99.90;;;;;;4753087;30;19958;-69
2021/01/05 03:03:50;;;;;;;;;;;-0.60;99.90;;;;;;4735247;30;19926;-69
2021/01/05 03:06:15;;;;;;;;;;;-0.60;99.90;;;;;;4735092;30;20372;-69
2021/01/05 03:08:45;;;;;;;;;;;-0.60;99.90;;;;;;4735236;30;19933;-69
2021/01/05 03:11:15;;;;;;;;;;;-0.70;99.90;;;;;;4735626;30;19922;-69
2021/01/05 03:13:52;;;;;;;;;;;-0.70;99.90;;;;;;4752545;30;19927;-69
2021/01/05 03:16:27;;;;;;;;;;;-0.70;99.90;;;;;;4752830;30;19926;-69
2021/01/05 03:18:59;;;;;;;;;;;-0.80;99.90;;;;;;4751789;30;20248;-69
2021/01/05 03:21:27;;;;;;;;;;;-0.80;99.90;;;;;;4751903;30;19922;-69
2021/01/05 03:23:53;;;;;;;;;;;-0.90;99.90;;;;;;4752299;30;19930;-69
2021/01/05 03:26:21;;;;;;;;;;;-0.80;99.90;;;;;;4752372;30;19926;-69
2021/01/05 03:28:47;;;;;;;;;;;-0.90;99.90;;;;;;4752457;30;19926;-69
2021/01/05 03:31:16;;;;;;;;;;;-1.00;99.90;;;;;;4752531;30;19978;-69
2021/01/05 03:33:42;;;;;;;;;;;-1.00;99.90;;;;;;4752041;30;19949;-69
2021/01/05 03:36:08;;;;;;;;;;;-1.00;99.90;;;;;;4752145;30;19952;-69
2021/01/05 03:38:34;;;;;;;;;;;-1.00;99.90;;;;;;4752125;30;20003;-69
2021/01/05 03:40:59;;;;;;;;;;;-1.00;99.90;;;;;;4752190;30;20375;-69
2021/01/05 03:43:25;;;;;;;;;;;-1.10;99.90;;;;;;4751758;30;19922;-69
2021/01/05 03:45:51;;;;;;;;;;;-1.00;99.90;;;;;;4752320;30;19918;-69
2021/01/05 03:48:17;;;;;;;;;;;-1.00;99.90;;;;;;4752334;30;19922;-69
2021/01/05 03:50:42;;;;;;;;;;;-1.00;99.90;;;;;;4751875;30;19975;-69
2021/01/05 03:53:08;;;;;;;;;;;-1.00;99.90;;;;;;4752088;30;19930;-69
2021/01/05 03:55:33;;;;;;;;;;;-1.10;99.90;;;;;;4752000;30;19926;-69
2021/01/05 03:57:59;;;;;;;;;;;-1.10;99.90;;;;;;4751260;30;19952;-69
2021/01/05 04:00:27;;;;;;;;;;;-1.00;99.90;;;;;;4752000;30;19972;-69
2021/01/05 04:02:54;;;;;;;;;;;-1.00;99.90;;;;;;4751469;30;19922;-69
2021/01/05 04:05:20;;;;;;;;;;;-1.00;99.90;;;;;;4751783;30;19929;-69
2021/01/05 04:07:46;;;;;;;;;;;-0.90;99.90;;;;;;4751787;30;19922;-69
2021/01/05 04:10:12;;;;;;;;;;;-0.70;99.90;;;;;;4752248;30;19930;-69
2021/01/05 04:12:38;;;;;;;;;;;-0.70;99.90;;;;;;4751376;30;19926;-69
2021/01/05 04:15:06;;;;;;;;;;;-0.70;99.90;;;;;;4751412;30;19954;-69
2021/01/05 04:17:31;;;;;;;;;;;-0.60;99.90;;;;;;4751866;30;19922;-69
2021/01/05 04:19:57;;;;;;;;;;;-0.60;99.90;;;;;;4751641;30;19926;-69
2021/01/05 04:22:23;;;;;;;;;;;-0.60;99.90;;;;;;4751322;30;19930;-69
2021/01/05 04:24:48;;;;;;;;;;;-0.60;99.90;;;;;;4751769;30;19925;-69
2021/01/05 04:27:14;;;;;;;;;;;-0.60;99.90;;;;;;4751864;30;19929;-69
2021/01/05 04:29:39;;;;;;;;;;;-0.60;99.90;;;;;;4751408;30;19919;-69
2021/01/05 04:32:05;;;;;;;;;;;-0.60;99.90;;;;;;4751551;30;19957;-69
2021/01/05 04:34:31;;;;;;;;;;;-0.50;99.90;;;;;;4751469;30;20260;-69
2021/01/05 04:36:56;;;;;;;;;;;-0.50;99.90;;;;;;4751491;30;19926;-69
2021/01/05 04:39:22;;;;;;;;;;;-0.50;99.90;;;;;;4750946;30;19922;-69
2021/01/05 04:41:52;;;;;;;;;;;-0.50;99.90;;;;;;4751479;30;19922;-69
2021/01/05 04:44:18;;;;;;;;;;;-0.50;99.90;;;;;;4751265;30;20000;-69
2021/01/05 04:46:57;;;;;;;;;;;-0.50;99.90;;;;;;4751979;30;19922;-69
2021/01/05 04:49:29;;;;;;;;;;;-0.50;99.90;;;;;;4750907;30;19958;-69
2021/01/05 04:52:04;;;;;;;;;;;-0.40;99.90;;;;;;4751423;30;19922;-69
2021/01/05 04:54:33;;;;;;;;;;;-0.40;99.90;;;;;;4751396;30;19922;-69
2021/01/05 04:57:17;;;;;;;;;;;-0.40;99.90;;;;;;4751274;30;20443;-69
2021/01/05 04:59:51;;;;;;;;;;;-0.40;99.90;;;;;;4751336;30;20000;-69
2021/01/05 05:02:23;;;;;;;;;;;-0.50;99.90;;;;;;4751245;30;19923;-69
2021/01/05 05:04:55;;;;;;;;;;;-0.50;99.90;;;;;;4750871;30;19922;-69
2021/01/05 05:07:47;;;;;;;;;;;-0.50;99.90;;;;;;4751434;30;19923;-69
2021/01/05 05:10:12;;;;;;;;;;;-0.50;99.90;;;;;;4747681;30;20455;-69
2021/01/05 05:12:43;;;;;;;;;;;-0.60;99.90;;;;;;4751268;30;19977;-68
2021/01/05 05:15:24;;;;;;;;;;;-0.60;99.90;;;;;;4751015;30;19948;-70
2021/01/05 05:17:58;;;;;;;;;;;-0.50;99.90;;;;;;4751234;30;19926;-69
2021/01/05 05:20:42;;;;;;;;;;;-0.50;99.90;;;;;;4751068;30;19948;-69
2021/01/05 05:23:26;;;;;;;;;;;-0.60;99.90;;;;;;4752046;30;20044;-69
2021/01/05 05:25:57;;;;;;;;;;;-0.70;99.90;;;;;;4750901;30;19927;-69
2021/01/05 05:28:28;;;;;;;;;;;-0.70;99.90;;;;;;4749756;30;19947;-69
2021/01/05 05:30:54;;;;;;;;;;;-0.60;99.90;;;;;;4750553;30;19969;-70
2021/01/05 05:33:24;;;;;;;;;;;-0.60;99.90;;;;;;4750543;30;20660;-75
2021/01/05 05:36:03;;;;;;;;;;;-0.60;99.90;;;;;;4750766;30;19922;-72
2021/01/05 05:38:33;;;;;;;;;;;-0.60;99.90;;;;;;4751147;30;19922;-70
2021/01/05 05:41:17;;;;;;;;;;;-0.60;99.90;;;;;;4750925;30;19922;-70
2021/01/05 05:43:53;;;;;;;;;;;-0.60;99.90;;;;;;4754211;30;19933;-70
2021/01/05 05:46:29;;;;;;;;;;;-0.70;99.90;;;;;;4754332;30;19922;-70
2021/01/05 05:49:06;;;;;;;;;;;-0.70;99.90;;;;;;4753837;30;19922;-71
2021/01/05 05:51:34;;;;;;;;;;;-0.70;99.90;;;;;;4747115;30;20451;-69
2021/01/05 05:54:10;;;;;;;;;;;-0.70;99.90;;;;;;4752056;30;20078;-69
2021/01/05 05:56:44;;;;;;;;;;;-0.70;99.90;;;;;;4753469;30;20037;-69
2021/01/05 05:59:10;;;;;;;;;;;-0.70;99.90;;;;;;4767266;30;20328;-69
2021/01/05 06:01:37;;;;;;;;;;;-0.70;99.90;;;;;;4751672;30;20001;-69
2021/01/05 06:04:03;;;;;;;;;;;-0.70;99.90;;;;;;4753342;30;19919;-70
2021/01/05 06:06:30;;;;;;;;;;;-0.50;99.90;;;;;;4752426;30;19922;-70
2021/01/05 06:08:55;;;;;;;;;;;-0.50;99.90;;;;;;4752520;30;19976;-69
2021/01/05 06:11:21;;;;;;;;;;;-0.40;99.90;;;;;;4753116;30;20367;-70
2021/01/05 06:13:46;;;;;;;;;;;-0.40;99.90;;;;;;4753154;30;19956;-70
2021/01/05 06:16:12;;;;;;;;;;;-0.50;99.90;;;;;;4753250;30;19933;-70
2021/01/05 06:18:38;;;;;;;;;;;-0.50;99.90;;;;;;4753088;30;19922;-69
2021/01/05 06:21:03;;;;;;;;;;;-0.60;99.90;;;;;;4751593;30;19926;-69
2021/01/05 06:23:29;;;;;;;;;;;-0.40;99.90;;;;;;4751941;30;19995;-69
2021/01/05 06:25:55;;;;;;;;;;;-0.30;99.90;;;;;;4753304;30;19922;-69
2021/01/05 06:28:20;;;;;;;;;;;-0.30;99.90;;;;;;4753874;30;20371;-69
2021/01/05 06:30:46;;;;;;;;;;;-0.30;99.90;;;;;;4753262;30;19922;-69
2021/01/05 06:33:12;;;;;;;;;;;-0.30;99.90;;;;;;4752773;30;19979;-70
2021/01/05 06:35:41;;;;;;;;;;;-0.30;99.90;;;;;;4753087;30;19922;-70
2021/01/05 06:38:06;;;;;;;;;;;-0.10;99.90;;;;;;4753132;30;19952;-69
2021/01/05 06:40:32;;;;;;;;;;;-0.10;99.90;;;;;;4752877;30;20431;-71
2021/01/05 06:42:58;;;;;;;;;;;-0.10;99.90;;;;;;4751106;30;20005;-71
2021/01/05 06:45:27;;;;;;;;;;;0.10;99.90;;;;;;4752883;30;20013;-71
2021/01/05 06:47:53;;;;;;;;;;;0.00;99.90;;;;;;4753103;30;19922;-73
2021/01/05 06:50:19;;;;;;;;;;;0.00;99.90;;;;;;4753332;30;19976;-71
2021/01/05 06:52:45;;;;;;;;;;;0.00;99.90;;;;;;4751965;30;20006;-73
2021/01/05 06:55:11;;;;;;;;;;;0.10;99.90;;;;;;4752551;30;19922;-74
2021/01/05 06:57:36;;;;;;;;;;;0.00;99.90;;;;;;4744581;30;19946;-72
2021/01/05 07:00:06;;;;;;;;;;;-0.10;99.90;;;;;;4734147;30;19977;-70
2021/01/05 07:02:32;;;;;;;;;;;0.00;99.90;;;;;;4750091;30;20331;-70
2021/01/05 07:04:57;;;;;;;;;;;0.00;99.90;;;;;;4743400;30;20006;-69
2021/01/05 07:07:23;;;;;;;;;;;0.10;99.90;;;;;;4746379;30;19949;-70
2021/01/05 07:09:49;;;;;;;;;;;0.10;99.90;;;;;;4752471;30;19927;-71
2021/01/05 07:12:14;;;;;;;;;;;0.20;99.90;;;;;;4752297;30;20020;-70
2021/01/05 07:14:40;;;;;;;;;;;0.20;99.90;;;;;;4752306;30;19984;-70
2021/01/05 07:17:06;;;;;;;;;;;0.20;99.90;;;;;;4751483;30;19964;-70
2021/01/05 07:19:31;;;;;;;;;;;0.20;99.90;;;;;;4752438;30;19930;-70
2021/01/05 07:21:57;;;;;;;;;;;0.20;99.90;;;;;;4751979;30;19926;-70
2021/01/05 07:24:22;;;;;;;;;;;0.20;99.90;;;;;;4753760;30;19929;-70
2021/01/05 07:26:49;;;;;;;;;;;0.20;99.90;;;;;;4754725;30;20341;-70
2021/01/05 07:29:16;;;;;;;;;;;0.20;99.90;;;;;;4753943;30;20001;-69
2021/01/05 07:31:41;;;;;;;;;;;0.30;99.90;;;;;;4750262;30;19979;-70
2021/01/05 07:34:08;;;;;;;;;;;0.30;99.90;;;;;;4754187;30;19930;-70
2021/01/05 07:36:35;;;;;;;;;;;0.50;99.90;;;;;;4753318;30;20393;-70
2021/01/05 07:39:10;;;;;;;;;;;0.50;99.90;;;;;;4754644;30;19922;-70
2021/01/05 07:41:35;;;;;;;;;;;0.60;99.90;;;;;;4754439;30;19922;-70
2021/01/05 07:44:01;;;;;;;;;;;0.70;99.90;;;;;;4754255;30;19952;-70
2021/01/05 07:46:27;;;;;;;;;;;0.70;99.90;;;;;;4754386;30;19923;-70
2021/01/05 07:48:52;;;;;;;;;;;0.80;99.90;;;;;;4754390;30;19922;-70
2021/01/05 07:51:18;;;;;;;;;;;0.80;99.90;;;;;;4754326;30;20260;-70
2021/01/05 07:53:43;;;;;;;;;;;1.00;99.90;;;;;;4747288;30;19995;-70
2021/01/05 07:56:09;;;;;;;;;;;0.90;99.90;;;;;;4754159;30;19923;-70
2021/01/05 07:58:35;;;;;;;;;;;1.10;99.90;;;;;;4754101;30;19930;-70
2021/01/05 08:01:00;;;;;;;;;;;1.20;99.90;;;;;;4754125;30;20484;-70
2021/01/05 08:03:26;;;;;;;;;;;1.20;99.90;;;;;;4753902;30;19933;-70
2021/01/05 08:05:52;;;;;;;;;;;1.20;99.90;;;;;;4751262;30;19926;-70
2021/01/05 08:08:17;;;;;;;;;;;1.30;99.90;;;;;;4736475;30;19930;-70
2021/01/05 08:10:43;;;;;;;;;;;1.30;99.90;;;;;;4736443;30;19930;-70
2021/01/05 08:13:10;;;;;;;;;;;1.30;99.90;;;;;;4737395;30;19926;-70
2021/01/05 08:15:35;;;;;;;;;;;1.40;99.90;;;;;;4753926;30;20313;-70
2021/01/05 08:18:02;;;;;;;;;;;1.40;99.90;;;;;;4753351;30;19943;-70
2021/01/05 08:20:29;;;;;;;;;;;1.50;99.90;;;;;;4753946;30;19919;-70
2021/01/05 08:22:55;;;;;;;;;;;1.60;99.90;;;;;;4753906;30;19962;-70
2021/01/05 08:25:21;;;;;;;;;;;1.70;99.90;;;;;;4752080;30;19976;-70
2021/01/05 08:27:48;;;;;;;;;;;1.70;99.90;;;;;;4753777;30;20091;-70
2021/01/05 08:30:33;;;;;;;;;;;1.80;99.90;;;;;;4753702;30;19922;-71
2021/01/05 08:33:00;;;;;;;;;;;2.00;99.90;;;;;;4753723;30;19930;-71
2021/01/05 08:35:26;;;;;;;;;;;2.00;99.90;;;;;;4739446;30;19929;-71
2021/01/05 08:37:52;;;;;;;;;;;2.10;99.90;;;;;;4735231;30;19927;-70
2021/01/05 08:40:19;;;;;;;;;;;2.20;99.90;;;;;;4733953;30;19992;-71
2021/01/05 08:42:45;;;;;;;;;;;2.30;99.90;;;;;;4733552;30;19922;-71
2021/01/05 08:45:11;;;;;;;;;;;2.40;99.90;;;;;;4744880;30;20290;-71
2021/01/05 08:47:36;;;;;;;;;;;2.60;99.90;;;;;;4751418;30;19922;-71
2021/01/05 08:50:05;;;;;;;;;;;2.50;99.90;;;;;;4751320;30;19980;-71
2021/01/05 08:52:30;;;;;;;;;;;2.60;99.90;;;;;;4751341;30;19926;-71
2021/01/05 08:54:56;;;;;;;;;;;2.50;99.90;;;;;;4742765;30;19930;-72
2021/01/05 08:57:22;;;;;;;;;;;2.60;99.90;;;;;;4733778;30;19926;-72
2021/01/05 08:59:48;;;;;;;;;;;2.50;99.90;;;;;;4751142;30;19922;-72
2021/01/05 09:02:13;;;;;;;;;;;2.40;99.90;;;;;;4751301;30;19980;-72
2021/01/05 09:04:39;;;;;;;;;;;2.40;99.90;;;;;;4735274;30;19923;-72
2021/01/05 09:07:05;;;;;;;;;;;2.30;99.90;;;;;;4733498;30;19980;-72
2021/01/05 09:09:30;;;;;;;;;;;2.20;99.90;;;;;;4733752;30;20383;-72
2021/01/05 09:11:57;;;;;;;;;;;2.20;99.90;;;;;;4733986;30;19922;-71
2021/01/05 09:14:23;;;;;;;;;;;2.30;99.90;;;;;;4746102;30;19923;-72
2021/01/05 09:16:54;;;;;;;;;;;2.20;99.90;;;;;;4752092;30;20342;-71
2021/01/05 09:19:20;;;;;;;;;;;2.20;99.90;;;;;;4754544;30;19922;-71
2021/01/05 09:21:46;;;;;;;;;;;2.20;99.90;;;;;;4754574;30;19991;-71
2021/01/05 09:24:12;;;;;;;;;;;2.10;99.90;;;;;;4742877;30;19926;-71
2021/01/05 09:26:37;;;;;;;;;;;2.00;99.90;;;;;;4736857;30;19929;-71
2021/01/05 09:29:04;;;;;;;;;;;2.00;98.90;;;;;;4736874;30;19922;-72
2021/01/05 09:31:30;;;;;;;;;;;2.10;98.80;;;;;;4737291;30;19979;-71
2021/01/05 09:33:55;;;;;;;;;;;2.00;99.90;;;;;;4745752;30;19934;-71
2021/01/05 09:36:31;;;;;;;;;;;2.00;99.80;;;;;;4754286;30;20428;-70
2021/01/05 09:38:57;;;;;;;;;;;2.00;99.90;;;;;;4753833;30;19929;-71
2021/01/05 09:41:24;;;;;;;;;;;1.90;99.90;;;;;;4754267;30;19926;-71
2021/01/05 09:43:50;;;;;;;;;;;1.80;99.90;;;;;;4745832;30;19923;-71
2021/01/05 09:46:16;;;;;;;;;;;1.80;99.90;;;;;;4748246;30;19922;-72
2021/01/05 09:48:42;;;;;;;;;;;1.70;99.90;;;;;;4753305;30;19968;-71
2021/01/05 09:51:08;;;;;;;;;;;1.70;99.90;;;;;;4753293;30;20383;-71
2021/01/05 09:53:34;;;;;;;;;;;1.70;99.90;;;;;;4753822;30;19960;-72
2021/01/05 09:56:00;;;;;;;;;;;1.80;99.90;;;;;;4754429;30;19922;-71
2021/01/05 09:58:26;;;;;;;;;;;1.80;99.90;;;;;;4754007;30;20059;-72
2021/01/05 10:00:52;;;;;;;;;;;1.90;99.90;;;;;;4753101;30;19999;-71
2021/01/05 10:03:18;;;;;;;;;;;1.90;99.90;;;;;;4736155;30;19953;-71
2021/01/05 10:05:43;;;;;;;;;;;2.10;99.90;;;;;;4735953;30;20391;-72
2021/01/05 10:08:09;;;;;;;;;;;2.00;99.90;;;;;;4736241;30;19972;-72
2021/01/05 10:10:35;;;;;;;;;;;2.10;99.90;;;;;;4741603;30;19937;-71
2021/01/05 10:13:00;;;;;;;;;;;2.10;99.90;;;;;;4748203;30;20332;-72
2021/01/05 10:15:26;;;;;;;;;;;2.20;99.90;;;;;;4745097;30;20388;-72
2021/01/05 10:17:51;;;;;;;;;;;2.30;99.90;;;;;;4751046;30;19922;-71
2021/01/05 10:20:18;;;;;;;;;;;2.20;99.90;;;;;;4748453;30;19922;-71
2021/01/05 10:22:44;;;;;;;;;;;2.20;99.90;;;;;;4749188;30;19993;-72
2021/01/05 10:25:10;;;;;;;;;;;2.30;99.90;;;;;;4745605;30;20005;-71
2021/01/05 10:27:36;;;;;;;;;;;2.30;99.60;;;;;;4752734;30;19918;-71
2021/01/05 10:30:06;;;;;;;;;;;2.30;99.90;;;;;;4737963;30;19927;-72
2021/01/05 10:32:32;;;;;;;;;;;2.20;99.50;;;;;;4735544;30;19930;-72
2021/01/05 10:34:57;;;;;;;;;;;2.30;99.80;;;;;;4746085;30;20005;-71
2021/01/05 10:37:23;;;;;;;;;;;2.30;99.70;;;;;;4745597;30;20341;-71
2021/01/05 10:39:49;;;;;;;;;;;2.20;99.70;;;;;;4749665;30;20295;-72
2021/01/05 10:42:15;;;;;;;;;;;2.40;99.20;;;;;;4736653;30;19926;-71
2021/01/05 10:44:40;;;;;;;;;;;2.30;99.70;;;;;;4743129;30;19962;-71
2021/01/05 10:47:07;;;;;;;;;;;2.30;99.10;;;;;;4749067;30;19968;-71
2021/01/05 10:49:33;;;;;;;;;;;2.40;99.00;;;;;;4754210;30;19926;-71
2021/01/05 10:51:59;;;;;;;;;;;2.40;98.50;;;;;;4741302;30;19922;-71
2021/01/05 10:54:29;;;;;;;;;;;2.40;98.80;;;;;;4741799;30;19930;-71
2021/01/05 10:57:01;;;;;;;;;;;2.50;99.00;;;;;;4745857;30;20012;-71
2021/01/05 10:59:27;;;;;;;;;;;2.60;98.30;;;;;;4751516;30;19965;-71
2021/01/05 11:01:55;;;;;;;;;;;2.60;98.00;;;;;;4754163;30;19929;-71
2021/01/05 11:04:24;;;;;;;;;;;2.60;98.10;;;;;;4748906;30;20056;-71
2021/01/05 11:06:54;;;;;;;;;;;2.60;98.30;;;;;;4749240;30;20473;-71
2021/01/05 11:09:20;;;;;;;;;;;2.60;98.80;;;;;;4751536;30;19918;-71
2021/01/05 11:11:47;;;;;;;;;;;2.70;98.60;;;;;;4736743;30;19927;-71
2021/01/05 11:14:13;;;;;;;;;;;2.60;97.90;;;;;;4742644;30;20005;-71
2021/01/05 11:16:45;;;;;;;;;;;2.60;97.90;;;;;;4744383;30;20371;-71
2021/01/05 11:19:10;;;;;;;;;;;2.60;97.90;;;;;;4754243;30;20008;-71
2021/01/05 11:21:36;;;;;;;;;;;2.60;98.10;;;;;;4768171;30;20017;-70
2021/01/05 11:24:02;;;;;;;;;;;2.80;98.00;;;;;;4754635;30;19926;-70
2021/01/05 11:26:33;;;;;;;;;;;2.80;97.90;;;;;;4752657;30;20289;-70
2021/01/05 11:28:58;;;;;;;;;;;2.80;97.70;;;;;;4752707;30;19922;-70
2021/01/05 11:31:24;;;;;;;;;;;2.80;97.90;;;;;;4752559;30;20296;-70
2021/01/05 11:33:49;;;;;;;;;;;2.90;98.70;;;;;;4750974;30;20314;-70
2021/01/05 11:36:25;;;;;;;;;;;2.70;99.10;;;;;;4752312;30;19952;-70
2021/01/05 11:38:53;;;;;;;;;;;2.70;98.60;;;;;;4751413;30;20416;-70
2021/01/05 11:41:23;;;;;;;;;;;2.40;99.50;;;;;;4752323;30;19923;-70
2021/01/05 11:43:49;;;;;;;;;;;2.50;99.90;;;;;;4749488;30;19922;-70
2021/01/05 11:46:15;;;;;;;;;;;2.40;99.90;;;;;;4751735;30;19922;-70
2021/01/05 11:48:40;;;;;;;;;;;2.50;99.90;;;;;;4752196;30;19968;-70
2021/01/05 11:51:06;;;;;;;;;;;2.60;99.90;;;;;;4751985;30;20371;-70
2021/01/05 11:53:32;;;;;;;;;;;2.60;99.50;;;;;;4748695;30;19938;-70
2021/01/05 11:55:57;;;;;;;;;;;2.50;99.90;;;;;;4734361;30;19922;-70
2021/01/05 11:58:23;;;;;;;;;;;2.30;99.90;;;;;;4734387;30;19922;-70
2021/01/05 12:00:48;;;;;;;;;;;2.30;99.90;;;;;;4734431;30;19949;-70
2021/01/05 12:03:14;;;;;;;;;;;2.20;99.90;;;;;;4740871;30;19949;-70
2021/01/05 12:05:39;;;;;;;;;;;2.20;99.90;;;;;;4749974;30;20406;-70
2021/01/05 12:08:05;;;;;;;;;;;2.20;99.90;;;;;;4747192;30;19934;-70
2021/01/05 12:10:31;;;;;;;;;;;2.10;99.90;;;;;;4752230;30;19922;-70
2021/01/05 12:12:56;;;;;;;;;;;2.20;99.90;;;;;;4742503;30;19957;-70
2021/01/05 12:15:22;;;;;;;;;;;2.20;99.90;;;;;;4734226;30;19935;-70
2021/01/05 12:17:48;;;;;;;;;;;2.20;99.90;;;;;;4734281;30;19923;-70
2021/01/05 12:20:13;;;;;;;;;;;2.20;99.90;;;;;;4733932;30;19922;-70
2021/01/05 12:22:39;;;;;;;;;;;2.30;99.90;;;;;;4734199;30;19927;-70
2021/01/05 12:25:05;;;;;;;;;;;2.30;99.90;;;;;;4743115;30;19922;-70
2021/01/05 12:27:31;;;;;;;;;;;2.20;99.90;;;;;;4751698;30;19922;-70
2021/01/05 12:29:56;;;;;;;;;;;2.20;99.90;;;;;;4751719;30;20371;-70
2021/01/05 12:32:22;;;;;;;;;;;2.20;99.90;;;;;;4738987;30;19934;-70
2021/01/05 12:34:52;;;;;;;;;;;2.20;99.90;;;;;;4741612;30;19923;-70
2021/01/05 12:37:20;;;;;;;;;;;2.30;99.90;;;;;;4733886;30;20399;-70
2021/01/05 12:39:45;;;;;;;;;;;2.50;99.90;;;;;;4746487;30;19958;-70
2021/01/05 12:42:13;;;;;;;;;;;2.60;99.90;;;;;;4750226;30;19964;-70
2021/01/05 12:44:39;;;;;;;;;;;2.60;99.80;;;;;;4751459;30;19949;-70
2021/01/05 12:47:05;;;;;;;;;;;2.70;99.10;;;;;;4752010;30;20367;-70
2021/01/05 12:49:31;;;;;;;;;;;2.80;99.10;;;;;;4751068;30;20051;-70
2021/01/05 12:51:56;;;;;;;;;;;2.70;98.50;;;;;;4754219;30;19922;-70
2021/01/05 12:54:23;;;;;;;;;;;2.80;98.50;;;;;;4755242;30;19934;-70
2021/01/05 12:56:49;;;;;;;;;;;2.90;97.40;;;;;;4754967;30;19922;-70
2021/01/05 12:59:15;;;;;;;;;;;2.90;96.40;;;;;;4755154;30;20038;-70
2021/01/05 13:01:41;;;;;;;;;;;3.00;96.10;;;;;;4753985;30;19922;-70
2021/01/05 13:04:07;;;;;;;;;;;2.90;96.00;;;;;;4755416;30;20017;-70
2021/01/05 13:06:33;;;;;;;;;;;2.90;95.50;;;;;;4755186;30;19933;-70
2021/01/05 13:08:59;;;;;;;;;;;2.80;95.70;;;;;;4755064;30;19972;-70
2021/01/05 13:11:25;;;;;;;;;;;2.80;95.30;;;;;;4754840;30;19929;-70
2021/01/05 13:13:51;;;;;;;;;;;2.80;95.50;;;;;;4754738;30;19926;-70
2021/01/05 13:16:19;;;;;;;;;;;2.80;95.50;;;;;;4754892;30;19922;-70
2021/01/05 13:18:45;;;;;;;;;;;2.80;95.30;;;;;;4754786;30;20268;-70
2021/01/05 13:21:11;;;;;;;;;;;2.70;96.30;;;;;;4754625;30;19973;-70
2021/01/05 13:23:36;;;;;;;;;;;2.80;96.40;;;;;;4755191;30;19922;-70
2021/01/05 13:26:02;;;;;;;;;;;2.80;96.00;;;;;;4754621;30;19952;-70
2021/01/05 13:28:28;;;;;;;;;;;2.90;95.90;;;;;;4754712;30;19955;-70
2021/01/05 13:30:54;;;;;;;;;;;3.00;96.10;;;;;;4754885;30;20384;-70
2021/01/05 13:33:20;;;;;;;;;;;3.00;96.00;;;;;;4754632;30;19934;-70
2021/01/05 13:35:46;;;;;;;;;;;3.00;95.50;;;;;;4754512;30;20005;-70
2021/01/05 13:38:11;;;;;;;;;;;3.10;96.00;;;;;;4754792;30;19925;-70
2021/01/05 13:40:38;;;;;;;;;;;3.20;96.10;;;;;;4754859;30;19929;-70
2021/01/05 13:43:04;;;;;;;;;;;3.20;95.40;;;;;;4754459;30;20058;-70
2021/01/05 13:45:29;;;;;;;;;;;3.20;95.30;;;;;;4754476;30;20004;-70
2021/01/05 13:47:55;;;;;;;;;;;3.20;94.80;;;;;;4754347;30;20359;-70
2021/01/05 13:50:21;;;;;;;;;;;3.10;95.00;;;;;;4754137;30;19922;-70
2021/01/05 13:52:47;;;;;;;;;;;3.00;95.20;;;;;;4754242;30;20506;-70
2021/01/05 13:55:14;;;;;;;;;;;3.00;94.90;;;;;;4754130;30;19922;-70
2021/01/05 13:57:39;;;;;;;;;;;3.00;95.60;;;;;;4754596;30;19980;-70
2021/01/05 14:00:05;;;;;;;;;;;3.00;95.60;;;;;;4754325;30;19926;-71
2021/01/05 14:02:31;;;;;;;;;;;3.00;95.60;;;;;;4753250;30;19995;-71
2021/01/05 14:04:57;;;;;;;;;;;2.90;95.10;;;;;;4753897;30;19985;-71
2021/01/05 14:07:23;;;;;;;;;;;2.90;95.10;;;;;;4754004;30;20379;-71
2021/01/05 14:09:48;;;;;;;;;;;2.90;94.60;;;;;;4754104;30;20009;-70
2021/01/05 14:12:24;;;;;;;;;;;2.70;94.70;;;;;;4753919;30;20017;-71
2021/01/05 14:14:50;;;;;;;;;;;2.70;94.70;;;;;;4754129;30;19928;-70
2021/01/05 14:17:16;;;;;;;;;;;2.60;95.00;;;;;;4753731;30;19961;-70
2021/01/05 14:19:43;;;;;;;;;;;2.70;94.60;;;;;;4754144;30;19954;-71
2021/01/05 14:22:09;;;;;;;;;;;2.80;94.60;;;;;;4755583;30;19922;-70
2021/01/05 14:24:35;;;;;;;;;;;2.70;94.90;;;;;;4755434;30;19922;-70
2021/01/05 14:27:01;;;;;;;;;;;2.60;93.80;;;;;;4753935;30;20394;-71